Check out our new PWSWeather beta!
PWSweather.com
Personal Weather Stations
Station Observations
SAINTARME1
SaintarmelFR 56450

SaintarmelFR 56450

Lat: 47.577844, Lon: -2.712171

Elevation: 10.93

Station Type: Oregon WMR200

http://www.monsitemeteo.fr/wxindex.php

Latest ConditionsUpdated 5:00:00 AM GMT+01:01 Friday, Feb 21, 2020
Currently Today's Max Today's Min Today's Average
Temperature 36.0°F2.2°C 41.9°F5.5°C 33.8°F1.0°C 35.8°F2.1°C
Dew Point 35.2°F1.8°C 35.9°F2.2°C 31.6°F-0.2°C 33.0°F0.6°C
Winds Calm Calm 0.1 mph -0.2 kmh - - 0.0 mph 0.0 kmh
Wind Gusts 1.6 mph2.6 kmh 1.8 mph2.9 kmh - -
Humidity 97% 97% 79% 90%
Pressure 30.45 in1031.2 mb 30.48 in1032.2 mb 30.39 in1029.1 mb -
Hour Temp Dew Point Humidity Winds Wind Gusts Pressure Precip Precip Rate Daily Precip Total
05:00 AM 36.0°F2.2°C 35.2°F1.8°C 97% Calm Calm 1.6 mph2.6 kmh 30.45 in1031.2 mb 0.00 in0.0 mm 0.00 in0.0 mm 0.00 in0.0 mm
04:45 AM 35.1°F1.7°C 34.0°F1.1°C 96% Calm Calm -- 30.45 in1031.2 mb 0.00 in0.0 mm 0.00 in0.0 mm 0.00 in0.0 mm
04:30 AM 34.3°F1.3°C 33.3°F0.7°C 96% 0.1 mph WSW0.2 kmh WSW 1.3 mph2.1 kmh 30.45 in1031.2 mb 0.00 in0.0 mm 0.00 in0.0 mm 0.00 in0.0 mm
04:15 AM 33.8°F1.0°C 32.5°F0.3°C 95% Calm Calm -- 30.45 in1031.2 mb 0.00 in0.0 mm 0.00 in0.0 mm 0.00 in0.0 mm
04:00 AM 33.8°F1.0°C 32.3°F0.2°C 94% Calm Calm -- 30.48 in1032.2 mb 0.00 in0.0 mm 0.00 in0.0 mm 0.00 in0.0 mm
03:45 AM 34.0°F1.1°C 32.4°F0.2°C 94% Calm Calm -- 30.45 in1031.2 mb 0.00 in0.0 mm 0.00 in0.0 mm 0.00 in0.0 mm
03:30 AM 33.8°F1.0°C 32.0°F0.0°C 93% Calm Calm -- 30.45 in1031.2 mb 0.00 in0.0 mm 0.00 in0.0 mm 0.00 in0.0 mm
03:15 AM 34.0°F1.1°C 31.9°F-0.1°C 92% Calm Calm -- 30.45 in1031.2 mb 0.00 in0.0 mm 0.00 in0.0 mm 0.00 in0.0 mm
03:00 AM 34.3°F1.3°C 32.3°F0.2°C 92% Calm Calm -- 30.45 in1031.2 mb 0.00 in0.0 mm 0.00 in0.0 mm 0.00 in0.0 mm
02:45 AM 34.5°F1.4°C 32.4°F0.2°C 92% Calm Calm -- 30.45 in1031.2 mb 0.00 in0.0 mm 0.00 in0.0 mm 0.00 in0.0 mm
02:30 AM 34.3°F1.3°C 31.7°F-0.2°C 90% Calm Calm -- 30.42 in1030.1 mb 0.00 in0.0 mm 0.00 in0.0 mm 0.00 in0.0 mm
02:15 AM 34.5°F1.4°C 31.6°F-0.2°C 89% Calm Calm -- 30.45 in1031.2 mb 0.00 in0.0 mm 0.00 in0.0 mm 0.00 in0.0 mm
02:00 AM 34.9°F1.6°C 32.0°F0.0°C 89% Calm Calm -- 30.45 in1031.2 mb 0.00 in0.0 mm 0.00 in0.0 mm 0.00 in0.0 mm
01:45 AM 35.4°F1.9°C 32.5°F0.3°C 89% Calm Calm -- 30.45 in1031.2 mb 0.00 in0.0 mm 0.00 in0.0 mm 0.00 in0.0 mm
01:30 AM 36.0°F2.2°C 32.8°F0.4°C 88% Calm Calm -- 30.42 in1030.1 mb 0.00 in0.0 mm 0.00 in0.0 mm 0.00 in0.0 mm
01:15 AM 36.5°F2.5°C 33.0°F0.6°C 87% Calm Calm -- 30.42 in1030.1 mb 0.00 in0.0 mm 0.00 in0.0 mm 0.00 in0.0 mm
01:00 AM 36.9°F2.7°C 32.8°F0.4°C 85% Calm Calm -- 30.42 in1030.1 mb 0.00 in0.0 mm 0.00 in0.0 mm 0.00 in0.0 mm
12:45 AM 37.9°F3.3°C 33.5°F0.8°C 84% Calm Calm -- 30.42 in1030.1 mb 0.00 in0.0 mm 0.00 in0.0 mm 0.00 in0.0 mm
12:30 AM 39.2°F4.0°C 34.5°F1.4°C 83% Calm Calm -- 30.42 in1030.1 mb 0.00 in0.0 mm 0.00 in0.0 mm 0.00 in0.0 mm
12:15 AM 40.5°F4.7°C 34.8°F1.6°C 80% Calm Calm -- 30.39 in1029.1 mb 0.00 in0.0 mm 0.00 in0.0 mm 0.00 in0.0 mm
12:00 AM 41.9°F5.5°C 35.9°F2.2°C 79% Calm Calm 1.8 mph2.9 kmh 30.39 in1029.1 mb 0.00 in0.0 mm 0.00 in0.0 mm 0.00 in0.0 mm